Time;durP1;ratioP1;P1;durP2;ratioP2;P2;SDS_P1;SDS_P2;PMS_P1;PMS_P2;Temp;Humidity;BMP_temperature;BMP_pressure;BME280_temperature;BME280_humidity;BME280_pressure;Samples;Min_cycle;Max_cycle;Signal;HPM_P1;HPM_P2
2023/01/14 00:01:43;;;;;;;24.80;11.00;;;;;;;-2.72;100.00;99666.63;106798;1275;25383;-69
2023/01/14 00:04:11;;;;;;;28.10;11.90;;;;;;;-2.72;100.00;99666.25;106885;1275;24005;-70
2023/01/14 00:06:38;;;;;;;27.10;11.60;;;;;;;-2.72;100.00;99667.98;106912;1275;25249;-71
2023/01/14 00:09:13;;;;;;;31.70;11.30;;;;;;;-2.71;100.00;99666.87;107104;1275;22980;-70
2023/01/14 00:11:46;;;;;;;24.80;10.40;;;;;;;-2.70;100.00;99663.81;107174;1253;22539;-70
2023/01/14 00:14:16;;;;;;;22.80;10.20;;;;;;;-2.71;100.00;99667.04;106344;1275;1003511;-69
2023/01/14 00:16:43;;;;;;;21.00;8.70;;;;;;;-2.71;100.00;99663.58;106364;1275;1015838;-69
2023/01/14 00:19:11;;;;;;;24.70;10.00;;;;;;;-2.71;100.00;99658.77;107106;1275;22764;-69
2023/01/14 00:21:40;;;;;;;22.90;9.70;;;;;;;-2.71;100.00;99655.05;106329;1274;1002941;-70
2023/01/14 00:24:08;;;;;;;24.70;10.80;;;;;;;-2.71;100.00;99652.08;107073;1275;22527;-70
2023/01/14 00:26:35;;;;;;;26.00;11.50;;;;;;;-2.71;100.00;99648.55;107129;1274;22532;-71
2023/01/14 00:29:02;;;;;;;27.20;11.80;;;;;;;-2.70;100.00;99650.59;107017;1274;22534;-71
2023/01/14 00:31:29;;;;;;;26.10;11.20;;;;;;;-2.69;100.00;99645.23;107071;1275;22527;-71
2023/01/14 00:34:00;;;;;;;24.80;10.30;;;;;;;-2.68;100.00;99643.08;107162;1274;22840;-70
2023/01/14 00:36:28;;;;;;;22.80;9.80;;;;;;;-2.70;100.00;99638.93;106373;1274;1002584;-70
2023/01/14 00:38:56;;;;;;;21.10;8.70;;;;;;;-2.72;100.00;99640.28;107136;1274;23101;-70
2023/01/14 00:41:25;;;;;;;24.70;10.20;;;;;;;-2.72;100.00;99636.63;106175;1275;1003339;-70
2023/01/14 00:43:56;;;;;;;20.40;8.30;;;;;;;-2.74;100.00;99627.89;106274;1275;1003099;-70
2023/01/14 00:46:28;;;;;;;21.20;8.00;;;;;;;-2.74;100.00;99626.64;107111;1275;25480;-69
2023/01/14 00:48:58;;;;;;;25.10;9.40;;;;;;;-2.73;100.00;99619.17;106361;1275;1003143;-70
2023/01/14 00:51:25;;;;;;;23.10;9.20;;;;;;;-2.72;100.00;99616.15;107071;1275;22529;-70
2023/01/14 00:53:53;;;;;;;30.50;10.80;;;;;;;-2.71;100.00;99615.90;106342;1268;1003664;-70
2023/01/14 00:56:21;;;;;;;34.10;11.90;;;;;;;-2.71;100.00;99614.80;106281;1275;1003670;-70
2023/01/14 00:58:49;;;;;;;26.00;10.70;;;;;;;-2.69;100.00;99610.66;107052;1275;23376;-69
2023/01/14 01:01:19;;;;;;;33.90;12.00;;;;;;;-2.68;100.00;99603.36;106863;1275;22520;-71
2023/01/14 01:03:55;;;;;;;24.20;11.20;;;;;;;-2.67;100.00;99595.33;107071;1275;22730;-70
2023/01/14 01:06:24;;;;;;;23.10;10.10;;;;;;;-2.66;100.00;99587.90;106390;1275;1003387;-70
2023/01/14 01:09:00;;;;;;;24.30;10.50;;;;;;;-2.66;100.00;99582.23;107140;1275;22546;-71
2023/01/14 01:11:28;;;;;;;20.80;9.50;;;;;;;-2.68;100.00;99576.31;107129;1275;22519;-70
2023/01/14 01:13:56;;;;;;;25.50;9.70;;;;;;;-2.69;100.00;99575.38;106946;1275;22519;-70
2023/01/14 01:16:24;;;;;;;23.50;10.70;;;;;;;-2.70;100.00;99573.84;106339;1275;1003078;-71
2023/01/14 01:18:53;;;;;;;19.30;8.70;;;;;;;-2.72;100.00;99570.77;106213;1274;1003588;-70
2023/01/14 01:21:21;;;;;;;28.10;10.60;;;;;;;-2.73;100.00;99570.16;106411;1275;1003742;-70
2023/01/14 01:23:49;;;;;;;27.90;11.30;;;;;;;-2.73;100.00;99572.44;107900;1274;22949;-69
2023/01/14 01:26:22;;;;;;;26.50;10.40;;;;;;;-2.72;100.00;99568.14;109242;1275;1003140;-70
2023/01/14 01:28:54;;;;;;;27.30;11.30;;;;;;;-2.69;100.00;99565.86;107000;1275;25486;-71
2023/01/14 01:31:21;;;;;;;31.70;11.70;;;;;;;-2.67;100.00;99563.23;106892;1275;22538;-71
2023/01/14 01:33:52;;;;;;;23.90;10.70;;;;;;;-2.63;100.00;99559.80;106937;1275;22519;-70
2023/01/14 01:36:23;;;;;;;24.70;9.80;;;;;;;-2.61;100.00;99556.54;106144;1275;1003482;-70
2023/01/14 01:38:50;;;;;;;25.60;11.00;;;;;;;-2.61;100.00;99554.02;106407;1275;1003008;-70
2023/01/14 01:41:29;;;;;;;22.40;10.40;;;;;;;-2.60;100.00;99546.03;106862;1275;22527;-70
2023/01/14 01:44:12;;;;;;;24.30;10.50;;;;;;;-2.60;100.00;99540.73;106934;1275;22531;-75
2023/01/14 01:46:40;;;;;;;28.30;11.40;;;;;;;-2.60;100.00;99533.15;106225;1275;1002831;-71
2023/01/14 01:49:14;;;;;;;21.00;9.50;;;;;;;-2.61;100.00;99536.06;106323;1275;1015682;-70
2023/01/14 01:52:01;;;;;;;23.00;9.40;;;;;;;-2.62;100.00;99534.67;107081;1275;22803;-70
2023/01/14 01:54:32;;;;;;;27.50;9.80;;;;;;;-2.61;100.00;99522.77;106125;1275;1003224;-70
2023/01/14 01:57:00;;;;;;;28.40;11.20;;;;;;;-2.60;100.00;99520.08;106852;1275;22549;-70
2023/01/14 01:59:31;;;;;;;27.90;10.30;;;;;;;-2.59;100.00;99516.70;106811;1275;25398;-75
2023/01/14 02:01:59;;;;;;;26.70;11.20;;;;;;;-2.58;100.00;99513.76;106856;1275;24189;-70
2023/01/14 02:04:26;;;;;;;26.70;10.90;;;;;;;-2.57;100.00;99508.05;107066;1275;22520;-70
2023/01/14 02:06:54;;;;;;;27.50;10.90;;;;;;;-2.55;100.00;99505.46;107005;1275;25239;-73
2023/01/14 02:09:21;;;;;;;28.20;10.30;;;;;;;-2.54;100.00;99508.91;106315;1275;1003327;-71
2023/01/14 02:12:24;;;;;;;23.10;9.20;;;;;;;-2.54;100.00;99505.59;107046;1275;22550;-70
2023/01/14 02:15:24;;;;;;;26.80;9.60;;;;;;;-2.55;100.00;99495.03;107085;1275;22576;-70
2023/01/14 02:17:59;;;;;;;25.70;9.70;;;;;;;-2.56;100.00;99495.44;107062;1275;25418;-71
2023/01/14 02:20:37;;;;;;;21.00;9.70;;;;;;;-2.56;100.00;99499.00;106330;1275;1002981;-69
2023/01/14 02:23:23;;;;;;;24.00;9.70;;;;;;;-2.56;100.00;99502.17;107140;1275;22535;-70
2023/01/14 02:25:54;;;;;;;20.30;8.70;;;;;;;-2.57;100.00;99494.29;106233;1275;1003376;-70
2023/01/14 02:29:07;;;;;;;27.00;10.60;;;;;;;-2.57;100.00;99492.91;107074;1275;22763;-70
2023/01/14 02:31:44;;;;;;;27.50;10.10;;;;;;;-2.57;100.00;99486.52;107016;1275;22641;-71
2023/01/14 02:34:19;;;;;;;28.10;11.70;;;;;;;-2.57;100.00;99488.31;106855;1275;24289;-70
2023/01/14 02:36:52;;;;;;;29.90;11.20;;;;;;;-2.56;100.00;99486.12;106889;1275;23801;-68
2023/01/14 02:39:30;;;;;;;25.40;10.50;;;;;;;-2.55;100.00;99484.47;106957;1275;23134;-70
2023/01/14 02:44:56;;;;;;;35.70;11.70;;;;;;;-2.55;100.00;99486.42;106976;1275;25930;-72
2023/01/14 02:47:26;;;;;;;23.60;9.50;;;;;;;-2.56;100.00;99487.89;106355;1275;1002916;-72
2023/01/14 02:49:56;;;;;;;27.30;10.80;;;;;;;-2.57;100.00;99484.08;107170;1274;24321;-72
2023/01/14 02:52:25;;;;;;;26.50;10.80;;;;;;;-2.58;100.00;99485.92;106195;1275;1003050;-70
2023/01/14 02:55:00;;;;;;;24.80;10.70;;;;;;;-2.59;100.00;99487.77;106900;1275;22526;-70
2023/01/14 02:57:48;;;;;;;31.50;11.50;;;;;;;-2.59;100.00;99477.17;107051;1275;22543;-72
2023/01/14 03:00:30;;;;;;;31.20;13.10;;;;;;;-2.59;100.00;99475.73;106197;1275;1003471;-70
2023/01/14 03:03:35;;;;;;;32.60;12.80;;;;;;;-2.58;100.00;99474.58;106929;1275;22660;-69
2023/01/14 03:06:38;;;;;;;34.50;13.00;;;;;;;-2.56;100.00;99464.91;107056;1275;22510;-71
2023/01/14 03:09:41;;;;;;;35.50;13.20;;;;;;;-2.55;100.00;99465.21;106758;1275;24223;-71
2023/01/14 03:12:21;;;;;;;30.30;12.80;;;;;;;-2.52;100.00;99461.65;107017;1259;25593;-69
2023/01/14 03:14:56;;;;;;;25.80;10.60;;;;;;;-2.51;100.00;99464.47;106162;1275;1003310;-70
2023/01/14 03:17:28;;;;;;;27.10;10.00;;;;;;;-2.52;100.00;99462.22;106903;1274;26668;-70
2023/01/14 03:20:16;;;;;;;27.50;11.60;;;;;;;-2.53;100.00;99458.73;106322;1275;1003224;-70
2023/01/14 03:22:44;;;;;;;31.90;12.70;;;;;;;-2.54;100.00;99449.62;106074;1274;1002833;-70
2023/01/14 03:25:13;;;;;;;31.80;13.70;;;;;;;-2.55;100.00;99449.87;106112;1275;1002857;-69
2023/01/14 03:27:42;;;;;;;26.50;10.50;;;;;;;-2.56;100.00;99447.60;107096;1275;24285;-70
2023/01/14 03:30:16;;;;;;;30.70;11.00;;;;;;;-2.57;100.00;99447.84;106906;1276;24272;-69
2023/01/14 03:32:50;;;;;;;31.60;12.30;;;;;;;-2.56;100.00;99446.62;106729;1276;207782;-70
2023/01/14 03:35:19;;;;;;;39.90;13.20;;;;;;;-2.57;100.00;99442.23;106901;1276;22656;-71
2023/01/14 03:37:53;;;;;;;27.20;13.50;;;;;;;-2.56;100.00;99442.55;106655;1276;25246;-69
2023/01/14 03:40:21;;;;;;;37.50;14.30;;;;;;;-2.55;100.00;99439.23;106934;1276;22541;-70
2023/01/14 03:42:53;;;;;;;29.80;13.70;;;;;;;-2.53;100.00;99440.40;106787;1276;24227;-69
2023/01/14 03:45:23;;;;;;;35.90;13.40;;;;;;;-2.52;100.00;99434.84;106656;1276;25347;-71
2023/01/14 03:47:51;;;;;;;26.60;11.50;;;;;;;-2.52;100.00;99434.98;106600;1276;22742;-72
2023/01/14 03:50:19;;;;;;;30.10;11.00;;;;;;;-2.52;100.00;99429.90;106840;1254;25651;-69
2023/01/14 03:52:56;;;;;;;28.20;11.40;;;;;;;-2.51;100.00;99426.14;106821;1276;22523;-70
2023/01/14 03:56:04;;;;;;;32.50;13.70;;;;;;;-2.50;100.00;99418.48;106167;1276;1003151;-70
2023/01/14 03:58:50;;;;;;;26.00;11.30;;;;;;;-2.50;100.00;99404.56;106074;1276;1003175;-70
2023/01/14 04:01:22;;;;;;;29.00;11.90;;;;;;;-2.50;100.00;99406.15;108538;1276;22084;-67
2023/01/14 04:03:50;;;;;;;;;;;;;;;-2.51;100.00;99406.14;109284;1276;25395;-69
2023/01/14 04:06:18;;;;;;;31.60;12.00;;;;;;;-2.48;100.00;99400.70;106125;1276;1003322;-70
2023/01/14 04:08:45;;;;;;;35.30;14.90;;;;;;;-2.46;100.00;99400.94;106856;1276;22536;-70
2023/01/14 04:11:12;;;;;;;35.70;16.20;;;;;;;-2.43;100.00;99400.55;106917;1276;22479;-70
2023/01/14 04:16:26;;;;;;;31.70;13.60;;;;;;;-2.38;100.00;99384.69;106883;1276;22541;-69
2023/01/14 04:18:53;;;;;;;30.00;11.30;;;;;;;-2.36;100.00;99385.05;106867;1276;24224;-70
2023/01/14 04:21:20;;;;;;;24.30;10.10;;;;;;;-2.34;100.00;99384.90;106879;1276;23106;-69
2023/01/14 04:23:48;;;;;;;27.00;10.70;;;;;;;-2.33;100.00;99378.80;106923;1276;23091;-70
2023/01/14 04:26:16;;;;;;;26.00;10.50;;;;;;;-2.32;100.00;99372.39;106167;1276;1002831;-69
2023/01/14 04:28:43;;;;;;;27.80;10.20;;;;;;;-2.32;100.00;99370.85;106900;1274;22767;-70
2023/01/14 04:31:10;;;;;;;30.40;11.20;;;;;;;-2.34;100.00;99409.08;106325;1275;1002917;-70
2023/01/14 04:33:38;;;;;;;26.20;9.80;;;;;;;-2.36;100.00;99408.39;107018;1275;22565;-69
2023/01/14 04:36:06;;;;;;;27.90;10.90;;;;;;;-2.37;100.00;99413.23;106176;1275;1002924;-70
2023/01/14 04:38:33;;;;;;;31.60;12.90;;;;;;;-2.38;100.00;99413.06;107121;1275;22610;-72
2023/01/14 04:41:01;;;;;;;34.20;11.80;;;;;;;-2.37;100.00;99409.88;106330;1275;1002987;-71
2023/01/14 04:43:28;;;;;;;25.60;11.80;;;;;;;-2.39;100.00;99408.37;106413;1275;1003281;-70
2023/01/14 04:45:56;;;;;;;38.50;12.10;;;;;;;-2.38;100.00;99406.18;107020;1275;24228;-69
2023/01/14 04:48:24;;;;;;;39.60;13.50;;;;;;;-2.37;100.00;99400.66;107079;1275;22472;-70
2023/01/14 04:50:51;;;;;;;32.60;11.80;;;;;;;-2.36;100.00;99397.55;106939;1274;26493;-70
2023/01/14 04:53:23;;;;;;;28.80;10.80;;;;;;;-2.35;100.00;99392.60;106895;1274;23897;-70
2023/01/14 04:55:52;;;;;;;23.40;11.00;;;;;;;-2.35;100.00;99385.83;106308;1274;1003644;-70
2023/01/14 04:58:19;;;;;;;30.10;11.50;;;;;;;-2.33;100.00;99382.77;106310;1275;1003675;-71
2023/01/14 05:00:46;;;;;;;29.70;12.10;;;;;;;-2.33;100.00;99378.69;107046;1274;22533;-70
2023/01/14 05:03:14;;;;;;;27.70;10.30;;;;;;;-2.34;100.00;99374.69;106368;1275;1002908;-71
2023/01/14 05:05:42;;;;;;;30.40;11.30;;;;;;;-2.33;100.00;99370.39;107036;1275;25341;-71
2023/01/14 05:08:09;;;;;;;31.60;11.60;;;;;;;-2.32;100.00;99367.85;106333;1275;1003711;-70
2023/01/14 05:10:37;;;;;;;29.40;12.50;;;;;;;-2.32;100.00;99365.02;107054;1274;25402;-71
2023/01/14 05:13:07;;;;;;;42.90;13.20;;;;;;;-2.33;100.00;99366.27;107133;1275;26510;-70
2023/01/14 05:15:40;;;;;;;39.80;13.30;;;;;;;-2.31;100.00;99362.84;107026;1275;24234;-69
2023/01/14 05:18:09;;;;;;;32.30;10.60;;;;;;;-2.30;100.00;99363.82;107095;1275;25492;-69
2023/01/14 05:20:36;;;;;;;26.60;10.90;;;;;;;-2.30;100.00;99361.31;106979;1274;25667;-71
2023/01/14 05:23:05;;;;;;;31.40;12.30;;;;;;;-2.31;100.00;99363.70;106907;1275;22597;-70
2023/01/14 05:25:34;;;;;;;41.30;13.80;;;;;;;-2.32;100.00;99357.58;106895;1274;22543;-74
2023/01/14 05:28:03;;;;;;;31.10;10.10;;;;;;;-2.33;100.00;99356.40;107105;1275;25356;-71
2023/01/14 05:30:31;;;;;;;35.00;12.20;;;;;;;-2.32;100.00;99353.55;107163;1275;22529;-71
2023/01/14 05:32:58;;;;;;;38.60;12.80;;;;;;;-2.32;100.00;99345.95;107161;1275;22780;-70
2023/01/14 05:35:26;;;;;;;34.00;12.00;;;;;;;-2.32;100.00;99344.33;106173;1275;1003737;-71
2023/01/14 05:37:53;;;;;;;44.70;14.80;;;;;;;-2.32;100.00;99344.33;106855;1275;22573;-72
2023/01/14 05:40:20;;;;;;;33.30;12.00;;;;;;;-2.31;100.00;99338.65;106257;1275;1003550;-70
2023/01/14 05:45:49;;;;;;;30.10;11.30;;;;;;;-2.30;100.00;99328.82;106947;1274;22999;-71
2023/01/14 05:48:21;;;;;;;33.60;12.20;;;;;;;-2.30;100.00;99329.89;107059;1274;22654;-70
2023/01/14 05:50:53;;;;;;;37.90;11.40;;;;;;;-2.30;100.00;99321.27;106960;1275;22522;-70
2023/01/14 05:53:20;;;;;;;31.50;11.10;;;;;;;-2.28;100.00;99318.66;106870;1275;22524;-71
2023/01/14 05:55:48;;;;;;;36.40;12.30;;;;;;;-2.27;100.00;99312.56;106970;1275;22595;-68
2023/01/14 05:58:16;;;;;;;35.90;12.80;;;;;;;-2.25;100.00;99303.09;106821;1275;23900;-69
2023/01/14 06:06:30;;;;;;;29.20;11.20;;;;;;;-2.23;100.00;99288.83;107075;1275;25348;-71
2023/01/14 06:09:09;;;;;;;36.40;11.90;;;;;;;-2.22;100.00;99291.09;107123;1261;25290;-70
2023/01/14 06:11:39;;;;;;;29.30;10.60;;;;;;;-2.21;100.00;99289.39;106316;1274;1003143;-70
2023/01/14 06:14:07;;;;;;;30.90;10.50;;;;;;;-2.19;100.00;99288.38;107001;1274;25619;-74
2023/01/14 06:16:39;;;;;;;43.10;13.50;;;;;;;-2.17;100.00;99278.36;107123;1274;22538;-70
2023/01/14 06:19:08;;;;;;;29.40;10.40;;;;;;;-2.16;100.00;99273.47;106905;1275;24644;-70
2023/01/14 06:21:36;;;;;;;34.10;11.80;;;;;;;-2.14;100.00;99270.01;107141;1275;22541;-70
2023/01/14 06:24:04;;;;;;;40.70;12.60;;;;;;;-2.13;100.00;99266.71;106333;1275;1016350;-69
2023/01/14 06:26:34;;;;;;;32.00;12.50;;;;;;;-2.11;100.00;99264.11;106356;1275;1003419;-70
2023/01/14 06:29:04;;;;;;;38.70;11.20;;;;;;;-2.09;100.00;99255.15;107122;1275;22634;-70
2023/01/14 06:44:56;;;;;;;44.70;12.90;;;;;;;-1.57;100.00;99111.94;103934;1296;1003593;-65
2023/01/14 06:47:23;;;;;;;28.80;11.20;;;;;;;-1.43;100.00;99082.58;104840;1286;1003689;-67
2023/01/14 06:49:50;;;;;;;29.60;10.10;;;;;;;-1.41;100.00;99098.02;106050;1287;23064;-67
2023/01/14 06:52:18;;;;;;;40.50;11.00;;;;;;;-1.41;100.00;99103.51;106240;1286;24260;-68
2023/01/14 06:54:47;;;;;;;36.50;12.60;;;;;;;-1.42;100.00;99108.46;106057;1286;25620;-68
2023/01/14 06:57:14;;;;;;;33.10;10.70;;;;;;;-1.42;100.00;99105.67;105477;1286;1003040;-69
2023/01/14 06:59:42;;;;;;;32.70;11.60;;;;;;;-1.42;100.00;99109.24;105315;1282;1002758;-71
2023/01/14 07:02:12;;;;;;;35.80;13.80;;;;;;;-1.42;100.00;99108.48;106194;1288;25117;-70
2023/01/14 07:04:39;;;;;;;30.80;11.80;;;;;;;-1.43;100.00;99107.84;105921;1287;22534;-66
2023/01/14 07:07:07;;;;;;;26.40;9.10;;;;;;;-1.42;100.00;99106.59;105791;1288;22536;-69
2023/01/14 07:09:34;;;;;;;32.50;10.30;;;;;;;-1.42;100.00;99104.27;106011;1288;22627;-69
2023/01/14 07:12:02;;;;;;;29.90;11.50;;;;;;;-1.43;100.00;99099.40;106030;1288;22543;-71
2023/01/14 07:14:29;;;;;;;26.90;9.90;;;;;;;-1.46;100.00;99096.66;105916;1288;22793;-69
2023/01/14 07:16:57;;;;;;;26.20;8.90;;;;;;;-1.49;100.00;99100.23;105187;1288;1002926;-69
2023/01/14 07:19:25;;;;;;;31.40;11.00;;;;;;;-1.50;100.00;99096.79;105992;1288;22562;-69
2023/01/14 07:21:52;;;;;;;26.30;10.00;;;;;;;-1.51;100.00;99095.98;105201;1288;1002402;-69
2023/01/14 07:24:20;;;;;;;28.60;10.70;;;;;;;-1.51;100.00;99092.59;106249;1287;25264;-69
2023/01/14 07:26:47;;;;;;;30.90;9.80;;;;;;;-1.50;100.00;99090.06;106275;1287;22662;-70
2023/01/14 07:29:14;;;;;;;24.20;9.40;;;;;;;-1.51;100.00;99087.98;105628;1287;1003429;-70
2023/01/14 07:31:42;;;;;;;31.20;9.70;;;;;;;-1.51;100.00;99086.95;106337;1267;25662;-71
2023/01/14 07:34:09;;;;;;;22.90;9.80;;;;;;;-1.51;100.00;99090.14;105564;1287;1002951;-70
2023/01/14 07:36:37;;;;;;;17.20;6.80;;;;;;;-1.52;100.00;99084.88;106223;1287;22553;-72
2023/01/14 07:39:04;;;;;;;29.60;9.50;;;;;;;-1.50;100.00;99085.12;106254;1287;22550;-70
2023/01/14 07:41:31;;;;;;;29.20;10.10;;;;;;;-1.49;100.00;99080.92;105586;1287;1002980;-69
2023/01/14 07:44:00;;;;;;;28.20;10.30;;;;;;;-1.47;100.00;99073.52;106247;1287;22580;-71
2023/01/14 07:46:28;;;;;;;27.20;10.30;;;;;;;-1.43;100.00;99070.01;106056;1271;22539;-69
2023/01/14 07:48:55;;;;;;;28.20;9.50;;;;;;;-1.40;100.00;99065.90;106102;1287;25443;-69
2023/01/14 07:51:23;;;;;;;27.90;7.60;;;;;;;-1.38;100.00;99059.94;106162;1287;22601;-69
2023/01/14 07:53:50;;;;;;;20.20;7.80;;;;;;;-1.37;100.00;99053.64;105386;1287;1003249;-70
2023/01/14 07:56:17;;;;;;;24.70;9.70;;;;;;;-1.34;100.00;99052.58;105895;1287;22559;-70
2023/01/14 07:58:47;;;;;;;20.70;8.00;;;;;;;-1.32;100.00;99050.61;106057;1287;22639;-69
2023/01/14 08:01:16;;;;;;;19.40;7.80;;;;;;;-1.31;100.00;99043.68;106137;1287;22746;-70
2023/01/14 08:03:51;;;;;;;25.00;9.10;;;;;;;-1.30;100.00;99043.02;106225;1287;25367;-70
2023/01/14 08:06:19;;;;;;;20.70;8.70;;;;;;;-1.27;100.00;99037.73;106277;1287;22549;-71
2023/01/14 08:08:46;;;;;;;21.50;10.50;;;;;;;-1.26;100.00;99032.12;105421;1287;1003702;-68
2023/01/14 08:11:13;;;;;;;28.20;10.00;;;;;;;-1.25;100.00;99027.77;106192;1287;24237;-69
2023/01/14 08:13:43;;;;;;;20.60;8.20;;;;;;;-1.25;100.00;99024.77;105417;1287;1003777;-69
2023/01/14 08:16:10;;;;;;;24.90;9.60;;;;;;;-1.25;100.00;99019.13;106205;1287;22563;-69
2023/01/14 08:18:37;;;;;;;21.60;8.20;;;;;;;-1.25;100.00;99018.11;106128;1287;22561;-67
2023/01/14 08:21:06;;;;;;;25.10;8.80;;;;;;;-1.25;100.00;99015.05;105499;1287;1003247;-67
2023/01/14 08:23:33;;;;;;;26.30;9.30;;;;;;;-1.23;100.00;99009.55;106029;1287;22766;-67
2023/01/14 08:26:05;;;;;;;27.80;12.00;;;;;;;-1.20;100.00;99009.56;106008;1287;25476;-69
2023/01/14 08:28:32;;;;;;;20.90;9.10;;;;;;;-1.20;100.00;99001.39;106204;1287;25623;-71
2023/01/14 08:31:07;;;;;;;25.60;10.70;;;;;;;-1.20;100.00;98995.58;106085;1287;22564;-68
2023/01/14 08:33:34;;;;;;;27.50;8.90;;;;;;;-1.19;100.00;98990.01;105978;1279;22574;-77
2023/01/14 08:36:05;;;;;;;28.20;9.90;;;;;;;-1.17;100.00;98994.12;105902;1279;25438;-70
2023/01/14 08:38:34;;;;;;;19.10;8.60;;;;;;;-1.17;100.00;98989.87;105484;1287;1002932;-78
2023/01/14 08:41:09;;;;;;;25.90;9.80;;;;;;;-1.16;100.00;98989.23;106176;1287;25386;-76
2023/01/14 08:43:36;;;;;;;22.20;8.00;;;;;;;-1.13;100.00;98986.04;106195;1285;22589;-76
2023/01/14 08:46:04;;;;;;;25.80;10.00;;;;;;;-1.12;100.00;98986.16;106176;1288;24221;-80
2023/01/14 08:48:31;;;;;;;21.10;8.80;;;;;;;-1.13;100.00;98986.75;106251;1288;25316;-78
2023/01/14 08:51:03;;;;;;;28.60;9.80;;;;;;;-1.11;100.00;98977.88;105489;1288;1003064;-79
2023/01/14 08:53:31;;;;;;;21.20;9.20;;;;;;;-1.08;100.00;98971.41;105509;1288;1002638;-77
2023/01/14 08:56:01;;;;;;;22.20;7.60;;;;;;;-1.03;100.00;98971.83;107073;1288;23082;-78
2023/01/14 08:58:29;;;;;;;18.20;7.20;;;;;;;-1.00;100.00;98968.84;107461;1288;22647;-79
2023/01/14 09:00:57;;;;;;;20.30;8.80;;;;;;;-0.95;100.00;98961.02;106114;1288;24440;-78
2023/01/14 09:03:26;;;;;;;27.00;9.10;;;;;;;-0.92;100.00;98956.02;106823;1282;1002907;-77
2023/01/14 09:05:57;;;;;;;25.30;8.30;;;;;;;-0.91;100.00;98954.67;107342;1284;24224;-78
2023/01/14 09:19:30;;;;;;;21.90;9.40;;;;;;;-0.76;100.00;98932.05;106437;1284;22537;-77
2023/01/14 09:21:58;;;;;;;23.10;9.80;;;;;;;-0.77;100.00;98936.05;106414;1282;24548;-76
2023/01/14 09:24:25;;;;;;;23.00;8.50;;;;;;;-0.78;100.00;98937.32;106309;1284;22551;-79
2023/01/14 09:26:52;;;;;;;20.50;8.60;;;;;;;-0.76;100.00;98940.19;106386;1284;22543;-76
2023/01/14 09:29:19;;;;;;;18.50;6.80;;;;;;;-0.74;100.00;98938.15;105590;1284;1003696;-78
2023/01/14 09:31:47;;;;;;;19.70;8.00;;;;;;;-0.74;100.00;98939.54;106522;1284;24284;-74
2023/01/14 09:34:14;;;;;;;24.40;8.50;;;;;;;-0.72;100.00;98939.12;106254;1284;22534;-78
2023/01/14 09:36:41;;;;;;;23.20;8.50;;;;;;;-0.69;100.00;98941.79;106104;1284;22661;-79
2023/01/14 09:39:08;;;;;;;21.70;7.90;;;;;;;-0.66;100.00;98938.73;105580;1284;1003545;-79
2023/01/14 09:41:37;;;;;;;21.20;8.50;;;;;;;-0.67;100.00;98942.28;106367;1284;25382;-77
2023/01/14 09:44:05;;;;;;;24.50;11.10;;;;;;;-0.68;100.00;98942.55;106385;1282;22544;-78
2023/01/14 09:46:32;;;;;;;28.30;11.10;;;;;;;-0.70;100.00;98944.65;106338;1279;25415;-78
2023/01/14 09:49:01;;;;;;;24.10;11.60;;;;;;;-0.70;100.00;98943.45;105445;1285;1003619;-77
2023/01/14 09:52:07;;;;;;;19.10;8.70;;;;;;;-0.68;100.00;98942.41;106264;1285;22570;-79
2023/01/14 09:54:47;;;;;;;23.20;9.50;;;;;;;-0.62;100.00;98935.69;106425;1285;26654;-78
2023/01/14 09:57:32;;;;;;;20.30;8.30;;;;;;;-0.58;100.00;98940.33;105648;1285;1003040;-76
2023/01/14 10:00:04;;;;;;;21.30;8.80;;;;;;;-0.53;100.00;98940.40;105699;1279;1003826;-80
2023/01/14 10:02:44;;;;;;;20.60;8.30;;;;;;;-0.50;100.00;98942.48;106492;1284;22537;-82
2023/01/14 10:05:41;;;;;;;21.40;8.20;;;;;;;-0.50;100.00;98944.42;107455;1276;22812;-82
2023/01/14 10:08:12;;;;;;;15.10;7.00;;;;;;;-0.50;100.00;98936.63;106841;1276;1003039;-79
2023/01/14 10:10:42;;;;;;;21.90;8.30;;;;;;;-0.50;100.00;98949.43;107853;1278;25300;-76
2023/01/14 10:13:34;;;;;;;21.60;8.40;;;;;;;-0.50;100.00;98952.05;107903;1276;22545;-78
2023/01/14 10:16:08;;;;;;;18.50;7.90;;;;;;;-0.48;100.00;98943.53;107928;1282;22540;-77
2023/01/14 10:18:58;;;;;;;20.30;7.90;;;;;;;-0.50;100.00;98951.86;108126;1279;22630;-81
2023/01/14 10:21:31;;;;;;;19.80;7.60;;;;;;;-0.52;100.00;98949.19;107678;1279;22539;-79
2023/01/14 10:24:01;;;;;;;18.20;7.40;;;;;;;-0.51;100.00;98953.52;108429;1278;22829;-83
2023/01/14 10:26:32;;;;;;;20.10;7.30;;;;;;;-0.50;100.00;98953.27;108870;1279;22801;-87
2023/01/14 10:29:21;;;;;;;22.00;8.70;;;;;;;-0.48;100.00;98950.14;108083;1276;1002389;-85
2023/01/14 10:32:06;;;;;;;23.90;10.00;;;;;;;-0.47;100.00;98958.15;108167;1280;1003183;-83
2023/01/14 10:34:40;;;;;;;19.70;9.00;;;;;;;-0.47;100.00;98959.23;108562;1276;22542;-83
2023/01/14 10:37:12;;;;;;;17.30;6.90;;;;;;;-0.49;100.00;98966.17;107066;1279;1003251;-75
2023/01/14 10:39:45;;;;;;;14.70;6.60;;;;;;;-0.50;100.00;98976.85;107068;1269;1003009;-74
2023/01/14 10:42:14;;;;;;;20.80;6.80;;;;;;;-0.49;100.00;98978.89;107246;1273;1003055;-73
2023/01/14 10:44:45;;;;;;;19.50;7.20;;;;;;;-0.48;100.00;98985.02;107966;1270;22688;-74
2023/01/14 10:47:15;;;;;;;15.40;6.60;;;;;;;-0.48;100.00;98992.61;107232;1270;24195;-71
2023/01/14 10:49:57;;;;;;;21.50;7.30;;;;;;;-0.48;100.00;98994.04;107183;1272;24254;-70
2023/01/14 10:52:31;;;;;;;20.00;8.40;;;;;;;-0.51;100.00;99000.10;107162;1278;24156;-71
2023/01/14 10:55:02;;;;;;;24.60;9.60;;;;;;;-0.55;100.00;99010.03;107198;1270;22730;-70
2023/01/14 10:57:32;;;;;;;21.10;8.20;;;;;;;-0.57;100.00;99022.05;106516;1270;1003059;-72
2023/01/14 11:00:05;;;;;;;21.70;8.20;;;;;;;-0.59;100.00;99026.19;106469;1271;1003694;-71
2023/01/14 11:02:40;;;;;;;16.70;6.50;;;;;;;-0.60;100.00;99046.12;106974;1270;22657;-71
2023/01/14 11:05:34;;;;;;;18.70;7.20;;;;;;;-0.61;100.00;99050.66;106379;1270;1003019;-71
2023/01/14 11:08:14;;;;;;;16.40;7.00;;;;;;;-0.61;100.00;99047.25;107102;1270;23272;-71
2023/01/14 11:10:55;;;;;;;16.20;6.70;;;;;;;-0.60;100.00;99058.55;106832;1272;22666;-73
2023/01/14 11:13:33;;;;;;;16.90;7.50;;;;;;;-0.62;100.00;99062.25;107172;1269;25963;-71
2023/01/14 11:27:22;;;;;;;21.30;8.20;;;;;;;-0.18;100.00;98956.45;106264;1303;558004;-79
2023/01/14 11:29:55;;;;;;;19.30;8.50;;;;;;;-0.05;100.00;98948.33;107142;1286;1430998;-79
2023/01/14 11:32:25;;;;;;;20.40;9.20;;;;;;;-0.08;100.00;98990.14;107946;1286;23972;-79
2023/01/14 11:34:58;;;;;;;24.60;9.20;;;;;;;-0.14;100.00;99017.46;108234;1286;22547;-77
2023/01/14 11:37:31;;;;;;;;;;;;;;;-0.21;100.00;99040.86;108087;1286;25472;-80
2023/01/14 11:39:59;;;;;;;18.60;7.30;;;;;;;-0.26;100.00;99068.39;107841;1286;24238;-79
2023/01/14 11:42:43;;;;;;;23.90;8.90;;;;;;;-0.33;100.00;99084.54;107998;1286;22567;-79
2023/01/14 11:45:11;;;;;;;20.40;9.50;;;;;;;-0.36;100.00;99107.64;107582;1286;25311;-80
2023/01/14 11:47:48;;;;;;;27.30;10.40;;;;;;;-0.39;100.00;99125.89;107669;1286;22551;-76
2023/01/14 11:50:21;;;;;;;27.80;10.70;;;;;;;-0.42;100.00;99139.23;108155;1282;22537;-80
2023/01/14 11:53:15;;;;;;;24.80;10.70;;;;;;;-0.44;100.00;99149.17;108032;1282;24296;-79
2023/01/14 11:55:47;;;;;;;25.70;9.20;;;;;;;-0.46;100.00;99153.21;108335;1279;22484;-80
2023/01/14 11:58:14;;;;;;;19.00;7.40;;;;;;;-0.49;100.00;99170.45;108466;1279;22547;-79
2023/01/14 12:01:00;;;;;;;18.00;7.80;;;;;;;-0.52;100.00;99177.11;107580;1279;1003209;-78
2023/01/14 12:03:34;;;;;;;18.60;7.60;;;;;;;-0.56;100.00;99178.50;108120;1279;25311;-78
2023/01/14 12:06:11;;;;;;;22.90;8.00;;;;;;;-0.62;100.00;99192.34;108323;1279;22625;-80
2023/01/14 12:08:40;;;;;;;19.90;8.90;;;;;;;-0.66;100.00;99199.45;108770;1274;22533;-77
2023/01/14 12:11:18;;;;;;;20.40;9.60;;;;;;;-0.69;100.00;99209.71;108516;1274;22535;-79
2023/01/14 18:07:03;;;;;;;48.40;15.40;;;;;;;-2.69;100.00;99215.61;105673;1295;557177;-70